Time;durP1;ratioP1;P1;durP2;ratioP2;P2;SDS_P1;SDS_P2;PMS_P1;PMS_P2;Temp;Humidity;BMP_temperature;BMP_pressure;BME280_temperature;BME280_humidity;BME280_pressure;Samples;Min_cycle;Max_cycle;Signal;HPM_P1;HPM_P2
2023/08/03 00:01:06;;;;;;;6.20;3.30;;;18.40;97.50;;;;;;5042860;28;20482;-80
2023/08/03 00:03:33;;;;;;;4.90;2.80;;;18.40;97.80;;;;;;5042945;28;20412;-80
2023/08/03 00:06:01;;;;;;;3.57;3.27;;;18.40;97.30;;;;;;5042612;28;20453;-81
2023/08/03 00:08:28;;;;;;;2.60;2.40;;;18.40;97.00;;;;;;5042697;28;20405;-81
2023/08/03 00:10:55;;;;;;;2.77;2.57;;;18.50;97.20;;;;;;5035505;28;20514;-80
2023/08/03 00:13:22;;;;;;;2.80;2.40;;;18.50;97.20;;;;;;5042590;28;20509;-82
2023/08/03 00:15:49;;;;;;;3.67;2.43;;;18.60;97.00;;;;;;5040974;28;20639;-79
2023/08/03 00:18:16;;;;;;;3.53;2.33;;;18.70;96.70;;;;;;5040952;28;20424;-79
2023/08/03 00:20:47;;;;;;;3.30;3.00;;;18.70;96.60;;;;;;5039711;28;20662;-81
2023/08/03 00:23:14;;;;;;;3.43;2.20;;;18.90;96.10;;;;;;5029617;28;20451;-84
2023/08/03 00:25:41;;;;;;;3.27;2.63;;;18.80;96.30;;;;;;5042240;28;20678;-85
2023/08/03 00:28:08;;;;;;;2.70;2.50;;;18.80;96.00;;;;;;5035684;28;20521;-82
2023/08/03 00:30:35;;;;;;;2.93;2.70;;;18.80;95.80;;;;;;5036387;28;20420;-81
2023/08/03 00:33:02;;;;;;;3.23;2.47;;;19.00;95.60;;;;;;5045574;28;20848;-80
2023/08/03 00:35:32;;;;;;;2.60;2.30;;;18.90;95.80;;;;;;5036988;28;20416;-83
2023/08/03 00:38:00;;;;;;;2.80;2.47;;;19.00;95.70;;;;;;5016785;28;20752;-80
2023/08/03 00:40:27;;;;;;;2.33;2.03;;;19.00;96.00;;;;;;5034954;28;20424;-79
2023/08/03 00:42:54;;;;;;;2.13;1.90;;;19.00;95.60;;;;;;5044248;28;20775;-81
2023/08/03 00:45:25;;;;;;;3.00;2.40;;;19.00;95.50;;;;;;5031511;28;20424;-81
2023/08/03 00:47:51;;;;;;;2.50;2.30;;;18.80;95.60;;;;;;5021329;28;20792;-82
2023/08/03 00:50:19;;;;;;;2.97;2.40;;;18.90;95.50;;;;;;5039876;28;20517;-83
2023/08/03 00:52:46;;;;;;;2.40;2.20;;;19.00;95.70;;;;;;5038812;28;20424;-82
2023/08/03 00:55:13;;;;;;;3.53;2.40;;;19.00;95.60;;;;;;5039229;28;20459;-84
2023/08/03 00:57:39;;;;;;;3.27;2.97;;;19.10;95.60;;;;;;5039528;28;20804;-83
2023/08/03 01:00:07;;;;;;;3.10;2.80;;;19.00;95.60;;;;;;5038040;28;20448;-79
2023/08/03 01:02:34;;;;;;;2.70;2.50;;;19.10;95.80;;;;;;5032701;28;20545;-81
2023/08/03 01:05:01;;;;;;;3.80;2.60;;;19.00;95.80;;;;;;5034247;28;21003;-82
2023/08/03 01:07:29;;;;;;;2.70;2.50;;;19.10;96.00;;;;;;5033504;28;20453;-80
2023/08/03 01:09:55;;;;;;;2.70;2.50;;;19.00;96.00;;;;;;5028098;28;20753;-81
2023/08/03 01:12:22;;;;;;;2.93;2.73;;;19.10;96.20;;;;;;5038252;28;20447;-80
2023/08/03 01:14:49;;;;;;;3.07;2.87;;;19.00;96.30;;;;;;5035385;28;20877;-84
2023/08/03 01:17:16;;;;;;;3.17;2.53;;;18.80;96.40;;;;;;5034929;28;20455;-80
2023/08/03 01:19:44;;;;;;;3.43;3.13;;;18.90;96.70;;;;;;5039212;28;20750;-82
2023/08/03 01:22:13;;;;;;;3.10;2.80;;;18.70;96.80;;;;;;5040658;28;20573;-83
2023/08/03 01:24:41;;;;;;;3.13;2.80;;;18.80;97.40;;;;;;5039621;28;20412;-81
2023/08/03 01:27:07;;;;;;;3.00;2.80;;;18.70;97.50;;;;;;5036494;28;20438;-81
2023/08/03 01:29:34;;;;;;;3.10;2.90;;;18.60;97.70;;;;;;5051836;28;20426;-81
2023/08/03 01:32:02;;;;;;;3.37;3.07;;;18.60;97.90;;;;;;5054375;28;20462;-81
2023/08/03 01:34:29;;;;;;;8.10;3.20;;;18.60;98.00;;;;;;5041145;28;20437;-83
2023/08/03 01:36:57;;;;;;;3.00;2.80;;;18.60;97.80;;;;;;5037654;28;20442;-83
2023/08/03 01:39:26;;;;;;;7.30;3.60;;;18.60;98.00;;;;;;5035989;28;20483;-82
2023/08/03 01:41:52;;;;;;;3.23;2.97;;;18.50;98.20;;;;;;5042012;28;20789;-86
2023/08/03 01:44:27;;;;;;;4.13;3.63;;;18.40;98.50;;;;;;5041112;28;20513;-81
2023/08/03 01:46:56;;;;;;;3.70;3.37;;;18.40;98.60;;;;;;5034744;28;20412;-81
2023/08/03 01:49:26;;;;;;;5.30;3.17;;;18.50;98.30;;;;;;5041320;28;20525;-82
2023/08/03 01:51:53;;;;;;;10.07;3.87;;;18.40;98.30;;;;;;5025036;28;20472;-85
2023/08/03 01:54:20;;;;;;;4.87;3.50;;;18.30;98.40;;;;;;5046364;28;20914;-82
2023/08/03 01:56:47;;;;;;;4.57;4.17;;;18.40;98.00;;;;;;5043737;28;20452;-81
2023/08/03 01:59:14;;;;;;;4.00;3.63;;;18.40;98.10;;;;;;5042384;28;21483;-82
2023/08/03 02:01:41;;;;;;;3.47;3.17;;;18.40;98.10;;;;;;5036301;28;20855;-83
2023/08/03 02:04:10;;;;;;;4.07;3.10;;;18.40;97.70;;;;;;5044007;28;20492;-82
2023/08/03 02:06:38;;;;;;;3.40;3.10;;;18.50;97.50;;;;;;5047211;28;20440;-83
2023/08/03 02:09:05;;;;;;;4.83;3.30;;;18.50;97.60;;;;;;5034945;28;20441;-83
2023/08/03 02:11:33;;;;;;;3.40;3.17;;;18.50;97.50;;;;;;5049275;28;20424;-83
2023/08/03 02:14:00;;;;;;;3.83;3.23;;;18.50;97.60;;;;;;5039122;28;20423;-83
2023/08/03 02:16:27;;;;;;;3.40;3.10;;;18.50;97.30;;;;;;5029954;28;20477;-82
2023/08/03 02:18:54;;;;;;;2.70;2.50;;;18.70;96.80;;;;;;5040996;28;20766;-81
2023/08/03 02:21:22;;;;;;;3.70;3.20;;;18.70;96.60;;;;;;5033829;28;20491;-81
2023/08/03 02:23:49;;;;;;;3.30;3.00;;;18.80;96.80;;;;;;5039840;28;20444;-85
2023/08/03 02:26:16;;;;;;;6.93;3.53;;;18.80;96.20;;;;;;5040592;28;20441;-85
2023/08/03 02:28:43;;;;;;;3.73;2.80;;;18.90;96.00;;;;;;5034518;28;20509;-84
2023/08/03 02:31:09;;;;;;;3.60;3.30;;;18.90;95.90;;;;;;5039038;28;20431;-83
2023/08/03 02:33:37;;;;;;;2.90;2.70;;;19.00;95.70;;;;;;5036396;28;20698;-80
2023/08/03 02:36:04;;;;;;;4.50;2.80;;;18.90;95.50;;;;;;5033781;28;20465;-80
2023/08/03 02:38:31;;;;;;;3.07;2.73;;;18.90;95.40;;;;;;5042406;28;21075;-83
2023/08/03 02:40:58;;;;;;;3.07;2.67;;;19.00;95.30;;;;;;5037822;28;20447;-84
2023/08/03 02:43:27;;;;;;;3.13;2.83;;;19.00;95.00;;;;;;5032368;28;20472;-83
2023/08/03 02:45:54;;;;;;;3.50;3.20;;;19.00;94.90;;;;;;5052892;28;20432;-81
2023/08/03 02:48:21;;;;;;;3.00;2.80;;;19.00;94.70;;;;;;5026298;28;20405;-83
2023/08/03 02:50:50;;;;;;;3.67;2.80;;;19.00;94.70;;;;;;5025810;28;20415;-84
2023/08/03 02:53:16;;;;;;;2.97;2.77;;;19.00;94.70;;;;;;5030651;28;20498;-83
2023/08/03 02:55:44;;;;;;;3.03;2.83;;;19.00;94.60;;;;;;5043557;28;20427;-84
2023/08/03 02:58:11;;;;;;;2.87;2.67;;;18.80;94.80;;;;;;5025659;28;20770;-86
2023/08/03 03:00:39;;;;;;;2.90;2.70;;;18.90;94.20;;;;;;5023742;28;20535;-83
2023/08/03 03:03:06;;;;;;;3.03;2.83;;;19.00;94.10;;;;;;5041313;28;20533;-85
2023/08/03 03:05:34;;;;;;;2.47;2.27;;;19.00;94.20;;;;;;5041394;28;21077;-84
2023/08/03 03:08:02;;;;;;;4.17;2.70;;;19.10;94.00;;;;;;5030291;28;20433;-83
2023/08/03 03:10:29;;;;;;;3.37;3.07;;;19.10;93.50;;;;;;5031200;28;20416;-82
2023/08/03 03:12:56;;;;;;;3.40;3.10;;;19.00;93.20;;;;;;5030496;28;20502;-82
2023/08/03 03:15:23;;;;;;;4.33;2.53;;;19.30;93.30;;;;;;5035719;28;20408;-79
2023/08/03 03:17:50;;;;;;;2.40;2.27;;;19.20;93.20;;;;;;5049119;28;20511;-82
2023/08/03 03:20:17;;;;;;;3.07;2.43;;;19.40;93.00;;;;;;5042011;28;20469;-80
2023/08/03 03:22:44;;;;;;;4.87;2.93;;;19.20;92.90;;;;;;5040797;28;20485;-77
2023/08/03 03:25:11;;;;;;;2.63;2.53;;;19.20;93.00;;;;;;5041371;28;20742;-82
2023/08/03 03:27:38;;;;;;;5.83;3.10;;;19.20;92.90;;;;;;5022760;28;20707;-79
2023/08/03 03:30:06;;;;;;;3.30;3.10;;;19.20;92.90;;;;;;5043251;28;20491;-82
2023/08/03 03:32:33;;;;;;;3.80;2.70;;;19.20;92.80;;;;;;5039950;28;20774;-81
2023/08/03 03:35:00;;;;;;;4.77;3.50;;;19.20;93.00;;;;;;5040139;28;20646;-82
2023/08/03 03:37:27;;;;;;;3.13;2.83;;;19.20;92.90;;;;;;5044713;28;20469;-81
2023/08/03 03:39:54;;;;;;;3.10;2.90;;;19.20;93.00;;;;;;5033323;28;20452;-81
2023/08/03 03:42:21;;;;;;;3.83;3.37;;;19.10;93.00;;;;;;5043062;28;20484;-81
2023/08/03 03:44:48;;;;;;;4.03;3.40;;;19.10;93.10;;;;;;5021141;28;20483;-84
2023/08/03 03:47:15;;;;;;;3.20;2.90;;;19.10;92.80;;;;;;5023399;28;20783;-83
2023/08/03 03:49:43;;;;;;;3.80;3.50;;;19.00;92.90;;;;;;5023308;28;20444;-82
2023/08/03 03:52:10;;;;;;;3.80;3.50;;;19.10;93.10;;;;;;5029186;28;20421;-79
2023/08/03 03:54:37;;;;;;;3.90;3.43;;;19.20;93.10;;;;;;5028430;28;20550;-84
2023/08/03 03:57:05;;;;;;;3.93;3.53;;;19.20;92.90;;;;;;5040830;28;20598;-83
2023/08/03 03:59:33;;;;;;;5.27;3.97;;;19.20;93.00;;;;;;5024261;28;20441;-82
2023/08/03 04:02:00;;;;;;;4.00;3.53;;;19.00;93.10;;;;;;5046439;28;20491;-81
2023/08/03 04:04:28;;;;;;;5.40;4.20;;;19.30;93.00;;;;;;5036514;28;20521;-82
2023/08/03 04:06:58;;;;;;;3.80;3.50;;;19.20;92.70;;;;;;5044900;28;20496;-79
2023/08/03 04:09:25;;;;;;;4.20;3.90;;;19.30;92.70;;;;;;5042537;28;20603;-85
2023/08/03 04:11:52;;;;;;;6.53;3.60;;;19.20;93.10;;;;;;5035854;28;20766;-81
2023/08/03 04:14:19;;;;;;;4.00;3.60;;;19.20;92.80;;;;;;5040122;28;20479;-82
2023/08/03 04:16:46;;;;;;;5.97;3.50;;;19.30;92.50;;;;;;5036209;28;20537;-83
2023/08/03 04:19:13;;;;;;;3.73;3.30;;;19.30;92.60;;;;;;5020261;28;20508;-82
2023/08/03 04:21:40;;;;;;;5.60;3.60;;;19.30;92.10;;;;;;5027850;28;20820;-82
2023/08/03 04:24:07;;;;;;;3.27;3.07;;;19.30;92.30;;;;;;5035122;28;20454;-83
2023/08/03 04:26:34;;;;;;;3.90;3.60;;;19.20;92.40;;;;;;5027011;28;20814;-84
2023/08/03 04:29:01;;;;;;;3.87;3.00;;;19.20;92.50;;;;;;5037600;28;20461;-81
2023/08/03 04:31:31;;;;;;;4.07;3.43;;;19.20;92.70;;;;;;5040101;28;20427;-81
2023/08/03 04:33:59;;;;;;;5.87;3.77;;;19.30;92.10;;;;;;5036530;28;20511;-83
2023/08/03 04:36:26;;;;;;;2.93;2.63;;;19.30;91.80;;;;;;5047488;28;20482;-83
2023/08/03 04:38:53;;;;;;;3.50;3.17;;;19.30;91.90;;;;;;5033416;28;20488;-84
2023/08/03 04:41:21;;;;;;;3.50;2.73;;;19.20;91.80;;;;;;5037390;28;20500;-85
2023/08/03 04:43:48;;;;;;;4.50;2.73;;;19.30;91.80;;;;;;5043103;28;20433;-81
2023/08/03 04:46:15;;;;;;;5.30;3.00;;;19.30;91.70;;;;;;5033682;28;20506;-81
2023/08/03 04:48:42;;;;;;;8.80;3.33;;;19.40;91.50;;;;;;5037075;28;20761;-84
2023/08/03 04:51:09;;;;;;;3.47;2.60;;;19.40;91.70;;;;;;5022646;28;20487;-81
2023/08/03 04:53:38;;;;;;;2.90;2.60;;;19.50;91.30;;;;;;5026007;28;20487;-83
2023/08/03 04:56:06;;;;;;;4.30;3.30;;;19.60;91.20;;;;;;5040086;28;20511;-79
2023/08/03 04:58:34;;;;;;;3.00;2.80;;;19.70;90.90;;;;;;5038504;28;20449;-81
2023/08/03 05:01:02;;;;;;;3.40;3.10;;;19.80;90.40;;;;;;5037156;28;20667;-85
2023/08/03 05:03:28;;;;;;;2.50;2.30;;;19.90;90.00;;;;;;5038978;28;20459;-82
2023/08/03 05:05:56;;;;;;;3.20;2.90;;;19.90;89.20;;;;;;5043123;28;20479;-84
2023/08/03 05:08:24;;;;;;;4.13;2.87;;;19.90;89.20;;;;;;5045888;28;20435;-83
2023/08/03 05:10:55;;;;;;;4.93;3.07;;;19.80;89.10;;;;;;5045706;28;20461;-82
2023/08/03 05:13:23;;;;;;;4.47;3.33;;;19.80;89.40;;;;;;5046653;28;20448;-82
2023/08/03 05:15:50;;;;;;;5.77;2.70;;;19.70;89.10;;;;;;5045608;28;20685;-81
2023/08/03 05:18:17;;;;;;;3.60;3.30;;;19.80;88.80;;;;;;5031706;28;20413;-79
2023/08/03 05:20:44;;;;;;;3.83;2.57;;;19.80;88.50;;;;;;5049552;28;20446;-81
2023/08/03 05:23:12;;;;;;;5.37;4.00;;;19.70;88.30;;;;;;5042019;28;20496;-84
2023/08/03 05:25:39;;;;;;;2.93;2.63;;;19.60;88.10;;;;;;5019301;28;20418;-83
2023/08/03 05:28:06;;;;;;;4.00;2.57;;;19.70;89.10;;;;;;5044017;28;20469;-83
2023/08/03 05:30:33;;;;;;;2.73;2.27;;;19.70;89.50;;;;;;5042563;28;20420;-80
2023/08/03 05:33:02;;;;;;;10.20;3.07;;;19.60;88.20;;;;;;5040678;28;20474;-81
2023/08/03 05:35:29;;;;;;;3.37;2.27;;;19.70;88.50;;;;;;5045100;28;20416;-80
2023/08/03 05:37:56;;;;;;;3.00;2.53;;;19.80;87.40;;;;;;5043103;28;20428;-84
2023/08/03 05:40:23;;;;;;;4.27;2.63;;;19.90;87.00;;;;;;5041371;28;20416;-80
2023/08/03 05:42:49;;;;;;;3.00;2.80;;;20.00;86.10;;;;;;5045060;28;20471;-81
2023/08/03 05:45:40;;;;;;;3.97;2.53;;;20.10;85.60;;;;;;5039763;28;20449;-82
2023/08/03 05:48:13;;;;;;;5.73;2.40;;;20.20;84.70;;;;;;5048556;28;20432;-81
2023/08/03 05:50:47;;;;;;;3.93;2.53;;;20.50;84.10;;;;;;5043048;28;20453;-85
2023/08/03 05:53:15;;;;;;;4.70;2.40;;;20.60;82.90;;;;;;5043791;28;20471;-86
2023/08/03 05:55:42;;;;;;;6.67;2.73;;;20.90;82.30;;;;;;5039877;28;20477;-81
2023/08/03 05:58:20;;;;;;;3.80;2.90;;;21.00;81.30;;;;;;5042220;28;20449;-81
2023/08/03 06:00:49;;;;;;;6.60;2.53;;;21.10;81.30;;;;;;5039300;28;20854;-81
2023/08/03 06:03:18;;;;;;;4.90;3.20;;;21.30;80.70;;;;;;5042502;28;20511;-83
2023/08/03 06:05:47;;;;;;;6.73;2.70;;;21.40;80.30;;;;;;5038988;28;20426;-81
2023/08/03 06:08:25;;;;;;;3.47;2.73;;;21.50;79.50;;;;;;5035908;28;20582;-87
2023/08/03 06:10:55;;;;;;;3.80;2.60;;;21.40;80.20;;;;;;5041340;28;20403;-82
2023/08/03 06:13:34;;;;;;;4.30;2.23;;;21.30;80.30;;;;;;5037052;28;21002;-83
2023/08/03 06:16:10;;;;;;;4.00;2.27;;;21.30;79.70;;;;;;5040357;28;20412;-82
2023/08/03 06:18:49;;;;;;;4.33;3.00;;;21.30;80.20;;;;;;5047542;28;20476;-84
2023/08/03 06:21:17;;;;;;;4.97;3.30;;;21.40;79.20;;;;;;5042223;28;20408;-83
2023/08/03 06:23:47;;;;;;;2.93;2.27;;;21.40;79.00;;;;;;5025884;28;20483;-83
2023/08/03 06:26:18;;;;;;;7.40;2.63;;;21.30;79.00;;;;;;5051033;28;20537;-85
2023/08/03 06:28:47;;;;;;;4.27;2.80;;;21.40;78.50;;;;;;5052442;28;20446;-81
2023/08/03 06:31:16;;;;;;;8.00;3.10;;;21.40;78.10;;;;;;5051314;28;20474;-83
2023/08/03 06:33:45;;;;;;;7.57;3.20;;;21.50;78.20;;;;;;5041133;28;20423;-84
2023/08/03 06:36:23;;;;;;;7.77;2.83;;;21.50;77.40;;;;;;5040333;28;20525;-84
2023/08/03 06:38:51;;;;;;;4.63;2.60;;;21.50;77.60;;;;;;5039451;28;20416;-79
2023/08/03 06:41:22;;;;;;;3.80;2.80;;;21.70;77.20;;;;;;5036013;28;20416;-82
2023/08/03 06:43:53;;;;;;;5.90;2.67;;;21.60;76.60;;;;;;5042305;28;20511;-82
2023/08/03 06:46:20;;;;;;;5.53;2.20;;;21.80;76.30;;;;;;5041834;28;20408;-82
2023/08/03 06:48:48;;;;;;;4.60;1.90;;;22.00;74.60;;;;;;5043495;28;20441;-83
2023/08/03 06:51:15;;;;;;;3.73;2.40;;;21.90;74.50;;;;;;5040662;28;20446;-79
2023/08/03 06:53:46;;;;;;;4.30;2.70;;;21.90;75.60;;;;;;5042264;28;20471;-81
2023/08/03 06:56:14;;;;;;;3.63;2.47;;;21.70;75.40;;;;;;5035419;28;20423;-83
2023/08/03 06:58:40;;;;;;;4.20;2.77;;;21.60;74.70;;;;;;5024699;28;20420;-84
2023/08/03 07:01:07;;;;;;;4.57;2.20;;;21.50;76.30;;;;;;5034760;28;20458;-81
2023/08/03 07:03:35;;;;;;;8.00;3.27;;;21.60;75.50;;;;;;5037367;28;20881;-84
2023/08/03 07:06:04;;;;;;;4.63;2.40;;;21.70;75.60;;;;;;5039583;28;20725;-82
2023/08/03 07:08:31;;;;;;;5.03;2.70;;;21.60;74.90;;;;;;5024222;28;20478;-81
2023/08/03 07:10:58;;;;;;;4.17;2.20;;;21.60;75.00;;;;;;5038813;28;20441;-83
2023/08/03 07:13:25;;;;;;;6.57;3.10;;;21.60;74.70;;;;;;5048882;28;20438;-83
2023/08/03 07:15:54;;;;;;;3.90;2.30;;;21.50;74.80;;;;;;5044349;28;20421;-82
2023/08/03 07:18:21;;;;;;;6.70;2.63;;;21.50;75.60;;;;;;5042539;28;20415;-81
2023/08/03 07:20:48;;;;;;;2.93;2.43;;;21.40;73.30;;;;;;5055414;28;20748;-84
2023/08/03 07:23:15;;;;;;;4.33;2.03;;;21.70;75.20;;;;;;5039528;28;20451;-81
2023/08/03 07:25:42;;;;;;;7.30;2.10;;;21.80;73.70;;;;;;5050383;28;20416;-81
2023/08/03 07:28:09;;;;;;;4.57;3.67;;;22.00;74.10;;;;;;5025745;28;20506;-82
2023/08/03 07:30:36;;;;;;;5.47;2.60;;;22.10;72.70;;;;;;5044816;28;20459;-84
2023/08/03 07:33:03;;;;;;;4.00;2.20;;;22.30;73.30;;;;;;5042776;28;20446;-81
2023/08/03 07:35:30;;;;;;;3.73;2.47;;;22.40;70.50;;;;;;5019994;28;20440;-78
2023/08/03 07:37:58;;;;;;;6.33;2.90;;;22.20;72.00;;;;;;5039922;28;20421;-84
2023/08/03 07:40:24;;;;;;;3.23;2.40;;;22.30;71.60;;;;;;5037961;28;20420;-81
2023/08/03 07:42:52;;;;;;;2.87;2.60;;;22.30;71.30;;;;;;5034829;28;21079;-83
2023/08/03 07:45:18;;;;;;;6.93;3.00;;;22.20;71.40;;;;;;5035537;28;20485;-82
2023/08/03 07:47:48;;;;;;;7.90;2.90;;;22.40;71.20;;;;;;5032045;28;20535;-83
2023/08/03 07:50:16;;;;;;;5.17;2.90;;;23.20;70.30;;;;;;5037007;28;20611;-80
2023/08/03 07:52:43;;;;;;;2.80;2.40;;;24.90;64.30;;;;;;5035062;28;20424;-80
2023/08/03 07:55:09;;;;;;;3.67;2.73;;;26.80;58.90;;;;;;5038539;28;20450;-80
2023/08/03 07:57:38;;;;;;;3.20;2.30;;;28.40;53.80;;;;;;5025092;28;20479;-82
2023/08/03 08:00:06;;;;;;;9.13;2.67;;;29.40;51.20;;;;;;5036248;28;20469;-79
2023/08/03 08:02:33;;;;;;;3.10;2.23;;;30.10;47.70;;;;;;5037939;28;20869;-80
2023/08/03 08:04:59;;;;;;;6.10;3.00;;;30.30;46.90;;;;;;5035824;28;20446;-80
2023/08/03 08:07:27;;;;;;;4.60;2.40;;;30.80;46.60;;;;;;5036541;28;20446;-80
2023/08/03 08:09:55;;;;;;;3.50;2.80;;;31.00;45.70;;;;;;5017939;28;20751;-79
2023/08/03 08:12:22;;;;;;;6.53;2.60;;;31.00;45.30;;;;;;5020238;28;20696;-80
2023/08/03 08:14:49;;;;;;;4.03;2.47;;;30.10;46.80;;;;;;5037549;28;20532;-79
2023/08/03 08:17:16;;;;;;;3.00;2.70;;;29.30;48.20;;;;;;5038816;28;20438;-81
2023/08/03 08:19:43;;;;;;;3.10;2.73;;;29.30;47.20;;;;;;5035051;28;20442;-87
2023/08/03 08:22:12;;;;;;;4.53;2.80;;;29.70;46.30;;;;;;5039049;28;20841;-81
2023/08/03 08:24:44;;;;;;;4.73;3.03;;;28.50;49.00;;;;;;5035420;28;20704;-81
2023/08/03 08:27:11;;;;;;;5.60;2.70;;;27.80;52.20;;;;;;5039714;28;20450;-81
2023/08/03 08:29:39;;;;;;;4.40;2.47;;;26.70;54.10;;;;;;5038773;28;20479;-83
2023/08/03 08:32:06;;;;;;;6.13;2.63;;;26.10;55.50;;;;;;5027468;28;20484;-79
2023/08/03 08:34:33;;;;;;;4.30;2.70;;;25.70;58.50;;;;;;5038412;28;20616;-86
2023/08/03 08:37:01;;;;;;;2.43;2.10;;;25.60;59.20;;;;;;5035966;28;20540;-81
2023/08/03 08:39:29;;;;;;;2.80;2.50;;;25.40;58.40;;;;;;5020828;28;20446;-87
2023/08/03 08:41:56;;;;;;;2.60;2.13;;;25.10;60.00;;;;;;5034670;28;20489;-80
2023/08/03 08:44:23;;;;;;;4.10;2.77;;;25.00;59.70;;;;;;5031297;28;20548;-80
2023/08/03 08:46:50;;;;;;;5.23;2.57;;;24.60;60.00;;;;;;5031718;28;20754;-83
2023/08/03 08:49:17;;;;;;;5.77;2.43;;;24.30;64.00;;;;;;5032859;28;20453;-79
2023/08/03 08:51:50;;;;;;;4.70;2.67;;;25.30;61.60;;;;;;5038652;28;20437;-81
2023/08/03 08:54:19;;;;;;;4.33;2.80;;;26.70;56.70;;;;;;5023857;28;20455;-82
2023/08/03 08:56:47;;;;;;;6.83;2.60;;;27.90;53.00;;;;;;5038465;28;20763;-80
2023/08/03 08:59:17;;;;;;;4.13;2.60;;;29.10;51.40;;;;;;5016278;28;20437;-80
2023/08/03 09:01:51;;;;;;;4.13;3.23;;;29.40;49.80;;;;;;5036807;28;20521;-81
2023/08/03 09:04:29;;;;;;;4.93;2.90;;;29.50;49.00;;;;;;5035719;28;20592;-80
2023/08/03 09:06:59;;;;;;;3.30;2.30;;;29.80;48.40;;;;;;5034194;28;20444;-81
2023/08/03 09:09:31;;;;;;;2.93;2.30;;;30.20;46.90;;;;;;5036834;28;20446;-81
2023/08/03 09:11:58;;;;;;;2.87;2.50;;;30.50;45.90;;;;;;5037732;28;20510;-80
2023/08/03 09:14:26;;;;;;;3.30;2.10;;;29.90;46.10;;;;;;5036520;28;20766;-85
2023/08/03 09:16:55;;;;;;;4.93;2.57;;;29.80;47.30;;;;;;5033607;28;20633;-86
2023/08/03 09:19:35;;;;;;;3.33;2.90;;;29.20;47.80;;;;;;5028028;28;20438;-82
2023/08/03 09:22:02;;;;;;;6.20;2.20;;;28.30;49.70;;;;;;5036795;28;20492;-82
2023/08/03 09:24:30;;;;;;;2.20;2.00;;;27.40;51.80;;;;;;5036888;28;20688;-83
2023/08/03 09:27:00;;;;;;;4.07;2.20;;;27.00;52.30;;;;;;5036068;28;21002;-82
2023/08/03 09:29:29;;;;;;;4.00;2.57;;;27.00;53.20;;;;;;5038641;28;20449;-84
2023/08/03 09:32:03;;;;;;;6.17;3.77;;;26.90;53.60;;;;;;5037830;28;20764;-84
2023/08/03 09:34:39;;;;;;;4.37;2.30;;;27.10;53.20;;;;;;5036815;28;20400;-82
2023/08/03 09:37:12;;;;;;;4.23;2.77;;;27.00;54.30;;;;;;5038446;28;20463;-82
2023/08/03 09:39:52;;;;;;;4.30;2.50;;;26.80;53.30;;;;;;5037750;28;20507;-80
2023/08/03 09:42:21;;;;;;;2.30;2.10;;;26.60;54.60;;;;;;5035322;28;20440;-79
2023/08/03 09:44:53;;;;;;;4.23;2.53;;;26.70;54.70;;;;;;5012209;28;20490;-83
2023/08/03 09:47:21;;;;;;;8.50;2.77;;;26.60;54.40;;;;;;5037969;28;20746;-85
2023/08/03 09:49:52;;;;;;;3.93;3.03;;;26.70;55.60;;;;;;5040012;28;20429;-80
2023/08/03 09:52:24;;;;;;;5.40;3.10;;;27.00;54.00;;;;;;5041316;28;20503;-84
2023/08/03 09:55:30;;;;;;;8.07;3.93;;;26.50;55.40;;;;;;5039422;28;20439;-81
2023/08/03 09:58:08;;;;;;;6.50;2.33;;;26.60;56.10;;;;;;5041576;28;20414;-81
2023/08/03 10:00:36;;;;;;;5.77;2.80;;;26.20;55.90;;;;;;5042589;28;20511;-83
2023/08/03 10:03:09;;;;;;;3.00;2.00;;;26.40;53.90;;;;;;5037956;28;20479;-82
2023/08/03 10:05:40;;;;;;;4.23;2.00;;;26.20;53.20;;;;;;5028489;28;20485;-80
2023/08/03 10:08:31;;;;;;;3.87;2.00;;;26.40;51.90;;;;;;5036902;28;20417;-82
2023/08/03 10:11:01;;;;;;;2.80;2.27;;;26.30;51.00;;;;;;5040377;28;20646;-81
2023/08/03 10:13:33;;;;;;;3.37;2.40;;;26.30;49.90;;;;;;5031181;28;20427;-80
2023/08/03 10:16:02;;;;;;;3.83;1.90;;;26.80;48.60;;;;;;5023087;28;20449;-81
2023/08/03 10:18:32;;;;;;;2.50;1.70;;;27.10;48.50;;;;;;5028266;28;20517;-83
2023/08/03 10:21:20;;;;;;;3.00;1.90;;;27.10;47.80;;;;;;5043802;28;20434;-81
2023/08/03 10:24:08;;;;;;;1.90;1.80;;;26.70;47.50;;;;;;5037952;28;20809;-81
2023/08/03 10:26:41;;;;;;;2.30;1.67;;;26.40;47.50;;;;;;5040342;28;20476;-84
2023/08/03 10:29:08;;;;;;;4.33;2.30;;;26.20;47.50;;;;;;5040870;28;20412;-82
2023/08/03 10:31:55;;;;;;;3.43;2.30;;;26.40;47.00;;;;;;5039361;28;20468;-82
2023/08/03 10:34:26;;;;;;;4.03;2.07;;;26.30;46.40;;;;;;5016988;28;20456;-82
2023/08/03 10:36:55;;;;;;;3.53;2.10;;;26.70;47.50;;;;;;5049423;28;20465;-81
2023/08/03 10:39:59;;;;;;;3.00;2.20;;;27.00;45.70;;;;;;5044532;28;20480;-81
2023/08/03 10:42:32;;;;;;;2.77;2.13;;;26.60;48.40;;;;;;4999147;28;20450;-80
2023/08/03 10:45:20;;;;;;;4.53;2.40;;;26.60;47.80;;;;;;5025941;28;20476;-84
2023/08/03 10:47:48;;;;;;;2.97;2.13;;;26.60;48.60;;;;;;5029699;28;20465;-81
2023/08/03 10:50:15;;;;;;;2.20;2.00;;;26.90;47.50;;;;;;5042548;28;20446;-83
2023/08/03 10:52:42;;;;;;;4.17;1.80;;;26.90;47.40;;;;;;5037276;28;20438;-83
2023/08/03 10:55:27;;;;;;;1.90;1.80;;;26.80;48.60;;;;;;5025380;28;20484;-85
2023/08/03 10:57:55;;;;;;;5.40;2.10;;;26.80;48.40;;;;;;5038010;28;20437;-83
2023/08/03 11:00:22;;;;;;;1.97;1.70;;;26.90;46.50;;;;;;5038479;28;20446;-82
2023/08/03 11:02:50;;;;;;;2.40;1.63;;;27.00;46.10;;;;;;5039498;28;20453;-83
2023/08/03 11:05:17;;;;;;;3.57;2.23;;;26.90;46.10;;;;;;5039798;28;20489;-83
2023/08/03 11:07:46;;;;;;;2.07;1.83;;;26.80;47.20;;;;;;5022648;28;20508;-80
2023/08/03 11:10:15;;;;;;;4.83;1.87;;;26.90;47.60;;;;;;5015161;28;20453;-81
2023/08/03 11:12:44;;;;;;;3.00;2.10;;;26.90;48.30;;;;;;5040052;28;20450;-82
2023/08/03 11:15:17;;;;;;;3.67;2.50;;;26.90;47.90;;;;;;5031851;28;21033;-81
2023/08/03 11:17:49;;;;;;;3.70;1.97;;;26.80;46.50;;;;;;5039649;28;20525;-81
2023/08/03 11:20:19;;;;;;;3.37;2.27;;;27.20;47.50;;;;;;5036736;28;20444;-81
2023/08/03 11:22:46;;;;;;;4.97;2.50;;;27.50;45.60;;;;;;5042970;28;20479;-79
2023/08/03 11:25:18;;;;;;;3.63;1.93;;;27.70;46.00;;;;;;5039017;28;20460;-81
2023/08/03 11:27:46;;;;;;;3.60;2.50;;;27.80;46.20;;;;;;5039197;28;20512;-85
2023/08/03 11:30:20;;;;;;;8.97;2.00;;;27.80;46.30;;;;;;5040855;28;20436;-80
2023/08/03 11:32:55;;;;;;;2.80;2.00;;;27.80;45.70;;;;;;5041681;28;20444;-79
2023/08/03 11:35:23;;;;;;;2.57;2.17;;;27.40;45.40;;;;;;5034935;28;20517;-81
2023/08/03 11:37:50;;;;;;;4.63;2.00;;;27.40;46.20;;;;;;5023785;28;20485;-81
2023/08/03 11:40:18;;;;;;;5.07;2.60;;;27.50;46.50;;;;;;5041845;28;20487;-82
2023/08/03 11:42:45;;;;;;;2.80;2.20;;;27.50;46.60;;;;;;5043783;28;20419;-82
2023/08/03 11:45:12;;;;;;;2.73;1.77;;;27.40;47.30;;;;;;5027594;28;20466;-80
2023/08/03 11:47:47;;;;;;;3.13;1.67;;;27.10;48.40;;;;;;5033474;28;20450;-81
2023/08/03 11:50:19;;;;;;;2.37;1.40;;;26.90;47.40;;;;;;5032774;28;20444;-80
2023/08/03 11:52:46;;;;;;;4.07;1.60;;;27.30;48.00;;;;;;5040012;28;20454;-83
2023/08/03 11:55:36;;;;;;;2.67;2.07;;;27.70;46.10;;;;;;5038676;28;20420;-80
2023/08/03 11:58:09;;;;;;;4.30;2.33;;;27.70;46.30;;;;;;5034583;28;20425;-83
2023/08/03 12:00:38;;;;;;;3.33;2.00;;;27.50;46.90;;;;;;5037404;28;20423;-86
2023/08/03 12:03:06;;;;;;;4.47;2.13;;;27.00;48.30;;;;;;5041145;28;20494;-79
2023/08/03 12:05:55;;;;;;;4.40;1.90;;;27.00;49.20;;;;;;5030558;28;20466;-81
2023/08/03 12:08:45;;;;;;;1.80;1.70;;;26.70;48.70;;;;;;5023451;28;20939;-80
2023/08/03 12:11:17;;;;;;;5.70;2.50;;;26.60;49.10;;;;;;5040434;28;20416;-82
2023/08/03 12:13:50;;;;;;;4.50;2.30;;;26.80;49.50;;;;;;5040984;28;20461;-81
2023/08/03 12:16:18;;;;;;;3.33;1.60;;;26.60;49.00;;;;;;5042339;28;20508;-84
2023/08/03 12:18:46;;;;;;;1.83;1.73;;;26.50;49.80;;;;;;5036137;28;20468;-80
2023/08/03 12:21:16;;;;;;;2.40;1.70;;;26.70;49.60;;;;;;5036053;28;20804;-83
2023/08/03 12:23:43;;;;;;;3.10;1.90;;;26.90;49.30;;;;;;5031216;28;20557;-81
2023/08/03 12:26:12;;;;;;;1.90;1.77;;;27.00;49.50;;;;;;5035998;28;20483;-82
2023/08/03 12:28:39;;;;;;;2.37;2.00;;;26.90;49.50;;;;;;5032291;28;20513;-80
2023/08/03 12:31:09;;;;;;;2.23;2.03;;;26.80;49.90;;;;;;5028787;28;20517;-79
2023/08/03 12:33:36;;;;;;;2.17;1.97;;;26.90;50.10;;;;;;5035751;28;20560;-80
2023/08/03 12:36:04;;;;;;;3.07;2.00;;;27.40;48.40;;;;;;5035829;28;20461;-83
2023/08/03 12:38:31;;;;;;;3.03;2.20;;;27.90;47.10;;;;;;5033554;28;20538;-82
2023/08/03 12:41:01;;;;;;;2.73;2.00;;;28.00;46.60;;;;;;5036806;28;20513;-79
2023/08/03 12:43:28;;;;;;;2.60;1.70;;;28.00;46.60;;;;;;5037322;28;20446;-82
2023/08/03 12:45:55;;;;;;;3.33;2.23;;;27.80;46.30;;;;;;5037309;28;20557;-83
2023/08/03 12:48:22;;;;;;;1.77;1.53;;;27.70;47.10;;;;;;5034861;28;20447;-84
2023/08/03 12:50:49;;;;;;;3.10;2.10;;;27.50;47.20;;;;;;5032967;28;20487;-81
2023/08/03 12:53:18;;;;;;;7.53;2.13;;;27.70;46.10;;;;;;5020162;28;20450;-84
2023/08/03 12:55:45;;;;;;;3.37;1.90;;;27.70;46.20;;;;;;5043644;28;20472;-80
2023/08/03 12:58:16;;;;;;;1.70;1.60;;;27.90;46.30;;;;;;5023292;28;20533;-82